< < Back
Terminal Aerodrome Forecast


Current Version              Previous Versions:   1  2  3  4  5  6  7  8  9  

Terminal Aerodrome Forecast

657
FTUS42 KTAE 042327
TAFDHN
TAF
KDHN 042327Z 0500/0524 29006KT P6SM SCT250
     FM051400 30004KT P6SM SCT040
     FM051800 07006KT P6SM VCTS SCT040CB=

Latest METAR

594
SAUS70 KWBC 051556
MTRDHN
METAR KDHN 051553Z 09007KT 10SM CLR 29/23 A3010 RMK AO2 SLP185
T02940228


USA.gov is the U.S. government's official web portal to all federal, state and local government web resources and services.